createdAt,value
2018-09-23T00:01:17.871Z,17.03
2018-09-23T00:03:46.588Z,17.50
2018-09-23T00:06:15.353Z,17.87
2018-09-23T00:08:44.156Z,17.70
2018-09-23T00:11:12.933Z,18.10
2018-09-23T00:13:41.712Z,18.33
2018-09-23T00:16:11.188Z,17.00
2018-09-23T00:18:40.083Z,17.50
2018-09-23T00:21:08.844Z,16.67
2018-09-23T00:23:37.624Z,16.97
2018-09-23T00:26:06.449Z,15.60
2018-09-23T00:28:35.839Z,16.30
2018-09-23T00:31:04.681Z,16.27
2018-09-23T00:33:33.447Z,16.50
2018-09-23T00:36:02.131Z,16.13
2018-09-23T00:38:30.883Z,16.77
2018-09-23T00:40:59.573Z,17.00
2018-09-23T00:43:28.341Z,17.17
2018-09-23T00:45:57.076Z,16.60
2018-09-23T00:48:25.798Z,16.20
2018-09-23T00:50:54.487Z,17.70
2018-09-23T00:53:23.141Z,19.20
2018-09-23T00:55:51.894Z,20.03
2018-09-23T00:58:20.632Z,21.90
2018-09-23T01:00:49.771Z,21.47
2018-09-23T01:03:18.507Z,20.83
2018-09-23T01:05:47.190Z,21.97
2018-09-23T01:08:16.025Z,21.77
2018-09-23T01:10:44.888Z,22.30
2018-09-23T01:13:13.638Z,23.10
2018-09-23T01:15:42.377Z,23.57
2018-09-23T01:18:11.110Z,22.00
2018-09-23T01:20:40.168Z,21.30
2018-09-23T01:23:08.885Z,21.30
2018-09-23T01:25:37.708Z,21.37
2018-09-23T01:28:06.675Z,23.10
2018-09-23T01:30:35.408Z,21.20
2018-09-23T01:33:04.253Z,20.47
2018-09-23T01:35:33.008Z,21.43
2018-09-23T01:38:01.713Z,21.60
2018-09-23T01:40:31.061Z,20.90
2018-09-23T01:42:59.755Z,20.80
2018-09-23T01:45:28.528Z,20.07
2018-09-23T01:47:57.678Z,21.17
2018-09-23T01:50:26.400Z,21.77
2018-09-23T01:52:55.128Z,23.60
2018-09-23T01:55:23.956Z,22.50
2018-09-23T01:57:52.760Z,21.83
2018-09-23T02:00:21.445Z,21.20
2018-09-23T02:02:50.108Z,21.90
2018-09-23T02:05:18.881Z,22.60
2018-09-23T02:07:47.568Z,20.40
2018-09-23T02:10:16.292Z,20.33
2018-09-23T02:12:44.956Z,20.97
2018-09-23T02:15:13.665Z,21.43
2018-09-23T02:17:42.415Z,19.13
2018-09-23T02:20:11.138Z,19.33
2018-09-23T02:22:39.851Z,19.77
2018-09-23T02:25:08.606Z,20.17
2018-09-23T02:27:37.328Z,21.50
2018-09-23T02:30:06.136Z,22.47
2018-09-23T02:32:34.848Z,20.40
2018-09-23T02:35:03.595Z,23.43
2018-09-23T02:37:32.355Z,22.90
2018-09-23T02:40:01.063Z,22.93
2018-09-23T02:42:29.978Z,28.07
2018-09-23T02:44:58.676Z,27.93
2018-09-23T02:47:27.390Z,27.90
2018-09-23T02:49:56.235Z,26.80
2018-09-23T02:52:25.050Z,25.23
2018-09-23T02:54:53.745Z,24.30
2018-09-23T02:57:22.472Z,24.63
2018-09-23T02:59:51.186Z,24.20
2018-09-23T03:02:19.900Z,23.13
2018-09-23T03:04:48.596Z,24.00
2018-09-23T03:07:17.310Z,23.97
2018-09-23T03:09:46.267Z,24.43
2018-09-23T03:12:15.000Z,24.93
2018-09-23T03:14:44.758Z,24.27
2018-09-23T03:17:17.662Z,21.90
2018-09-23T03:20:14.843Z,23.37
2018-09-23T03:30:11.366Z,22.67
2018-09-23T03:36:20.293Z,20.77
2018-09-23T03:38:49.673Z,21.23
2018-09-23T03:41:19.238Z,23.10
2018-09-23T03:43:48.520Z,21.83
2018-09-23T03:46:17.808Z,26.50
2018-09-23T03:48:47.123Z,24.63
2018-09-23T03:51:16.535Z,25.97
2018-09-23T03:53:46.018Z,23.77
2018-09-23T03:56:15.318Z,23.53
2018-09-23T03:58:44.623Z,23.77
2018-09-23T04:01:13.913Z,23.77
2018-09-23T04:03:43.231Z,32.00
2018-09-23T04:06:12.513Z,28.00
2018-09-23T04:08:41.781Z,38.47
2018-09-23T04:11:11.051Z,32.33
2018-09-23T04:13:40.287Z,39.33
2018-09-23T04:16:09.639Z,41.53
2018-09-23T04:18:38.899Z,33.83
2018-09-23T04:21:08.224Z,33.00
2018-09-23T04:23:37.523Z,39.70
2018-09-23T04:26:06.953Z,29.90
2018-09-23T04:28:36.199Z,41.03
2018-09-23T04:31:05.453Z,30.37
2018-09-23T04:33:34.694Z,32.17
2018-09-23T04:36:03.948Z,38.03
2018-09-23T04:38:33.193Z,34.70
2018-09-23T04:41:02.504Z,38.10
2018-09-23T04:43:31.716Z,39.60
2018-09-23T04:46:01.039Z,49.03
2018-09-23T04:48:30.358Z,28.07
2018-09-23T04:50:59.754Z,37.70
2018-09-23T04:53:29.263Z,34.77
2018-09-23T04:55:58.550Z,34.20
2018-09-23T04:58:27.788Z,34.07
2018-09-23T05:00:57.094Z,25.40
2018-09-23T05:03:26.400Z,26.77
2018-09-23T05:05:55.716Z,31.37
2018-09-23T05:08:25.033Z,29.40
2018-09-23T05:10:54.285Z,42.47
2018-09-23T05:13:23.668Z,41.57
2018-09-23T05:15:52.968Z,34.63
2018-09-23T05:18:22.296Z,37.87
2018-09-23T05:20:51.611Z,48.83
2018-09-23T05:23:20.968Z,33.40
2018-09-23T05:25:50.308Z,41.77
2018-09-23T05:28:19.594Z,41.43
2018-09-23T05:30:48.901Z,37.47
2018-09-23T05:33:18.226Z,43.77
2018-09-23T05:35:47.514Z,34.83
2018-09-23T05:38:16.771Z,34.87
2018-09-23T05:40:46.063Z,35.93
2018-09-23T05:43:15.493Z,38.00
2018-09-23T05:45:44.798Z,46.23
2018-09-23T05:48:14.075Z,57.07
2018-09-23T05:50:43.423Z,39.70
2018-09-23T05:53:13.492Z,34.27
2018-09-23T05:55:42.736Z,49.87
2018-09-23T05:58:12.090Z,44.30
2018-09-23T06:00:45.773Z,49.13
2018-09-23T06:03:15.376Z,52.17
2018-09-23T06:05:44.729Z,38.33
2018-09-23T06:08:14.107Z,41.17
2018-09-23T06:10:43.529Z,38.77
2018-09-23T06:13:12.743Z,39.17
2018-09-23T06:15:42.180Z,35.43
2018-09-23T06:18:11.411Z,39.63
2018-09-23T06:20:40.711Z,32.97
2018-09-23T06:23:10.016Z,39.67
2018-09-23T06:25:39.353Z,49.30
2018-09-23T06:28:08.634Z,30.53
2018-09-23T06:30:37.916Z,31.03
2018-09-23T06:33:07.374Z,31.77
2018-09-23T06:35:37.646Z,42.03
2018-09-23T06:38:06.939Z,31.30
2018-09-23T06:40:36.321Z,31.13
2018-09-23T06:43:05.657Z,25.80
2018-09-23T06:45:34.904Z,28.37
2018-09-23T06:48:04.183Z,22.37
2018-09-23T06:50:34.098Z,22.87
2018-09-23T06:53:03.572Z,22.07
2018-09-23T06:55:33.014Z,34.20
2018-09-23T06:58:02.319Z,23.73
2018-09-23T07:00:31.872Z,30.97
2018-09-23T07:03:02.311Z,29.13
2018-09-23T07:05:31.675Z,26.73
2018-09-23T07:08:04.204Z,25.30
2018-09-23T07:10:34.619Z,25.20
2018-09-23T07:13:04.514Z,25.57
2018-09-23T07:15:34.096Z,24.33
2018-09-23T07:18:03.484Z,23.93
2018-09-23T07:20:32.864Z,23.67
2018-09-23T07:23:02.194Z,21.83
2018-09-23T07:25:31.873Z,21.37
2018-09-23T07:28:01.193Z,20.60
2018-09-23T07:30:30.743Z,18.90
2018-09-23T07:32:59.986Z,18.73
2018-09-23T07:35:29.402Z,17.53
2018-09-23T07:37:59.417Z,17.97
2018-09-23T07:40:29.766Z,17.80
2018-09-23T07:42:59.034Z,18.93
2018-09-23T07:45:28.445Z,16.53
2018-09-23T07:47:58.153Z,16.95
2018-09-23T07:50:26.876Z,18.80
2018-09-23T07:52:55.599Z,18.53
2018-09-23T07:55:24.286Z,18.13
2018-09-23T07:57:53.029Z,17.55
2018-09-23T08:00:21.756Z,17.83
2018-09-23T08:02:50.466Z,17.43
2018-09-23T08:05:19.157Z,17.53
2018-09-23T08:07:47.881Z,17.20
2018-09-23T08:10:16.698Z,17.05
2018-09-23T08:12:45.750Z,17.05
2018-09-23T08:15:14.209Z,14.90
2018-09-23T08:17:43.775Z,15.08
2018-09-23T08:20:12.493Z,14.13
2018-09-23T08:22:41.157Z,13.78
2018-09-23T08:25:09.994Z,13.60
2018-09-23T08:27:38.559Z,12.88
2018-09-23T08:30:07.436Z,12.90
2018-09-23T08:32:36.061Z,13.43
2018-09-23T08:35:04.839Z,13.05
2018-09-23T08:37:33.579Z,11.83
2018-09-23T08:40:02.275Z,11.93
2018-09-23T08:42:30.962Z,11.88
2018-09-23T08:44:59.636Z,10.60
2018-09-23T08:47:28.276Z,10.80
2018-09-23T08:49:57.001Z,10.65
2018-09-23T08:52:25.684Z,9.90
2018-09-23T08:54:54.368Z,10.72
2018-09-23T08:57:23.087Z,9.95
2018-09-23T08:59:52.049Z,9.88
2018-09-23T09:02:20.711Z,9.95
2018-09-23T09:04:49.382Z,10.13
2018-09-23T09:07:18.104Z,10.18
2018-09-23T09:09:46.892Z,9.48
2018-09-23T09:12:15.577Z,8.83
2018-09-23T09:14:44.220Z,9.90
2018-09-23T09:17:12.957Z,8.50
2018-09-23T09:19:41.997Z,7.75
2018-09-23T09:22:10.695Z,7.80
2018-09-23T09:24:39.429Z,8.18
2018-09-23T09:27:08.103Z,7.85
2018-09-23T09:29:36.800Z,8.28
2018-09-23T09:32:05.481Z,7.85
2018-09-23T09:34:34.741Z,6.87
2018-09-23T09:37:03.625Z,7.30
2018-09-23T09:39:32.457Z,7.37
2018-09-23T09:42:01.330Z,7.70
2018-09-23T09:44:30.187Z,7.53
2018-09-23T09:46:58.849Z,7.25
2018-09-23T09:49:27.597Z,6.67
2018-09-23T09:51:56.364Z,6.75
2018-09-23T09:54:25.037Z,7.12
2018-09-23T09:56:53.697Z,5.85
2018-09-23T09:59:22.787Z,5.85
2018-09-23T10:01:52.030Z,5.97
2018-09-23T10:04:20.815Z,6.30
2018-09-23T10:06:49.561Z,5.97
2018-09-23T10:09:18.394Z,6.45
2018-09-23T10:11:47.209Z,5.40
2018-09-23T10:14:16.032Z,5.20
2018-09-23T10:16:44.776Z,5.30
2018-09-23T10:19:13.584Z,6.03
2018-09-23T10:21:42.348Z,5.47
2018-09-23T10:24:11.097Z,6.03
2018-09-23T10:26:39.834Z,5.90
2018-09-23T10:29:08.637Z,5.20
2018-09-23T10:31:42.219Z,5.10
2018-09-23T10:34:13.027Z,4.80
2018-09-23T10:36:41.764Z,4.67
2018-09-23T10:39:11.226Z,4.05
2018-09-23T10:41:39.882Z,4.72
2018-09-23T10:44:09.125Z,4.62
2018-09-23T10:46:38.079Z,4.83
2018-09-23T10:49:07.219Z,4.70
2018-09-23T10:51:35.957Z,4.55
2018-09-23T10:54:05.587Z,4.55
2018-09-23T10:56:34.371Z,4.10
2018-09-23T10:59:03.272Z,4.03
2018-09-23T11:01:31.969Z,4.72
2018-09-23T11:04:00.838Z,4.50
2018-09-23T11:06:29.569Z,4.40
2018-09-23T11:08:58.381Z,4.17
2018-09-23T11:11:27.210Z,3.17
2018-09-23T11:13:56.488Z,3.83
2018-09-23T11:16:25.368Z,4.15
2018-09-23T11:18:54.345Z,4.17
2018-09-23T11:21:23.252Z,3.75
2018-09-23T11:23:52.745Z,4.70
2018-09-23T11:26:23.020Z,4.37
2018-09-23T11:28:52.382Z,3.80
2018-09-23T11:31:21.395Z,4.78
2018-09-23T11:33:50.296Z,4.03
2018-09-23T11:36:19.535Z,3.98
2018-09-23T11:45:19.612Z,4.67
2018-09-23T11:51:16.979Z,4.20
2018-09-23T12:09:32.449Z,4.03
2018-09-23T12:18:56.141Z,3.95
2018-09-23T12:25:41.238Z,4.62
2018-09-23T12:31:40.395Z,4.50
2018-09-23T12:38:00.357Z,4.25
2018-09-23T12:44:09.509Z,3.90
2018-09-23T12:47:11.364Z,4.03
2018-09-23T12:50:12.508Z,3.90
2018-09-23T12:53:16.954Z,4.25
2018-09-23T12:56:19.757Z,3.42
2018-09-23T13:02:29.143Z,3.80
2018-09-23T13:05:33.268Z,3.75
2018-09-23T13:18:02.349Z,3.15
2018-09-23T13:21:06.202Z,3.62
2018-09-23T13:27:22.772Z,3.52
2018-09-23T13:36:14.529Z,3.20
2018-09-23T13:39:16.251Z,3.58
2018-09-23T13:42:11.667Z,3.33
2018-09-23T13:48:03.920Z,3.27
2018-09-23T13:51:09.794Z,3.50
2018-09-23T13:54:03.915Z,3.60
2018-09-23T13:57:04.942Z,3.67
2018-09-23T14:03:29.324Z,3.33
2018-09-23T14:06:37.531Z,3.60
2018-09-23T14:09:31.553Z,6.72
2018-09-23T14:12:45.583Z,5.72
2018-09-23T14:15:42.331Z,4.15
2018-09-23T14:22:04.039Z,4.35
2018-09-23T14:28:10.413Z,4.17
2018-09-23T14:34:19.383Z,3.45
2018-09-23T14:37:19.531Z,4.58
2018-09-23T14:40:16.861Z,3.55
2018-09-23T14:46:30.419Z,4.20
2018-09-23T14:49:37.613Z,3.60
2018-09-23T14:52:47.111Z,3.70
2018-09-23T14:55:55.645Z,4.62
2018-09-23T15:01:46.761Z,3.35
2018-09-23T15:04:43.546Z,3.25
2018-09-23T15:07:40.702Z,3.60
2018-09-23T15:10:34.987Z,3.40
2018-09-23T15:16:22.222Z,3.05
2018-09-23T15:19:25.094Z,3.33
2018-09-23T15:22:17.342Z,3.15
2018-09-23T15:25:09.466Z,3.15
2018-09-23T15:28:09.732Z,3.47
2018-09-23T15:31:13.721Z,2.95
2018-09-23T15:34:12.921Z,3.20
2018-09-23T15:37:04.481Z,3.33
2018-09-23T15:40:14.292Z,3.00
2018-09-23T15:43:08.578Z,3.35
2018-09-23T15:46:11.323Z,3.40
2018-09-23T15:49:14.665Z,2.60
2018-09-23T15:58:10.544Z,3.02
2018-09-23T16:01:11.401Z,3.17
2018-09-23T16:07:14.576Z,3.27
2018-09-23T16:10:02.589Z,2.50
2018-09-23T16:19:17.953Z,3.17
2018-09-23T16:28:20.923Z,2.50
2018-09-23T16:31:56.536Z,2.90
2018-09-23T16:35:01.101Z,2.75
2018-09-23T16:37:52.763Z,2.83
2018-09-23T16:40:53.318Z,2.80
2018-09-23T16:43:51.403Z,3.10
2018-09-23T16:56:07.533Z,3.00
2018-09-23T17:02:11.161Z,2.45
2018-09-23T17:08:19.604Z,2.83
2018-09-23T17:11:22.731Z,2.80
2018-09-23T17:14:22.951Z,3.25
2018-09-23T17:29:43.578Z,4.53
2018-09-23T17:35:49.641Z,3.60
2018-09-23T17:38:56.195Z,4.23
2018-09-23T17:41:57.460Z,3.70
2018-09-23T17:44:57.914Z,3.72
2018-09-23T17:47:58.452Z,2.90
2018-09-23T17:51:47.516Z,3.22
2018-09-23T17:58:08.284Z,3.20
2018-09-23T18:07:09.945Z,3.92
2018-09-23T18:13:06.474Z,3.27
2018-09-23T18:19:01.747Z,3.57
2018-09-23T18:21:59.438Z,3.70
2018-09-23T18:25:04.135Z,4.00
2018-09-23T18:28:07.915Z,2.97
2018-09-23T18:31:08.916Z,3.63
2018-09-23T18:41:02.388Z,3.20
2018-09-23T18:47:14.816Z,3.27
2018-09-23T18:53:13.565Z,3.50
2018-09-23T19:06:30.333Z,3.47
2018-09-23T19:10:15.636Z,3.43
2018-09-23T19:13:22.214Z,3.47
2018-09-23T19:26:04.042Z,3.80
2018-09-23T19:32:10.964Z,3.50
2018-09-23T19:35:26.611Z,3.33
2018-09-23T19:38:33.978Z,3.70
2018-09-23T19:41:57.724Z,4.27
2018-09-23T19:48:49.471Z,4.10
2018-09-23T19:52:12.694Z,4.67
2018-09-23T20:08:37.056Z,3.90
2018-09-23T20:11:06.102Z,5.07
2018-09-23T20:13:46.086Z,5.40
2018-09-23T20:16:14.768Z,4.80
2018-09-23T20:18:43.369Z,5.40
2018-09-23T20:21:12.169Z,5.57
2018-09-23T20:23:40.788Z,5.50
2018-09-23T20:26:15.209Z,5.40
2018-09-23T20:28:49.579Z,5.77
2018-09-23T20:31:18.277Z,5.27
2018-09-23T20:33:46.889Z,5.93
2018-09-23T20:36:21.128Z,5.50
2018-09-23T20:38:49.861Z,5.70
2018-09-23T20:41:18.721Z,6.10
2018-09-23T20:43:47.627Z,6.10
2018-09-23T20:46:16.430Z,6.20
2018-09-23T20:48:45.117Z,6.53
2018-09-23T20:51:13.733Z,7.13
2018-09-23T20:53:42.309Z,5.53
2018-09-23T20:56:10.876Z,4.60
2018-09-23T20:58:40.062Z,5.20
2018-09-23T21:01:08.884Z,5.63
2018-09-23T21:03:37.739Z,4.80
2018-09-23T21:06:06.609Z,5.07
2018-09-23T21:08:36.081Z,5.30
2018-09-23T21:11:04.889Z,5.97
2018-09-23T21:13:33.579Z,5.80
2018-09-23T21:16:02.234Z,6.10
2018-09-23T21:18:30.954Z,6.23
2018-09-23T21:20:59.684Z,6.43
2018-09-23T21:23:28.269Z,7.53
2018-09-23T21:25:57.256Z,7.37
2018-09-23T21:28:25.969Z,6.63
2018-09-23T21:31:00.324Z,7.03
2018-09-23T21:33:29.052Z,7.07
2018-09-23T21:35:57.833Z,7.23
2018-09-23T21:38:32.036Z,7.70
2018-09-23T21:41:00.819Z,9.03
2018-09-23T21:43:29.596Z,9.63
2018-09-23T21:45:58.406Z,8.30
2018-09-23T21:48:27.161Z,6.90
2018-09-23T21:50:55.884Z,6.50
2018-09-23T21:53:25.452Z,6.40
2018-09-23T21:55:54.274Z,6.80
2018-09-23T21:58:23.029Z,6.93
2018-09-23T22:00:51.939Z,6.70
2018-09-23T22:03:20.825Z,6.70
2018-09-23T22:05:49.666Z,7.10
2018-09-23T22:08:19.604Z,6.87
2018-09-23T22:10:48.339Z,7.03
2018-09-23T22:13:17.113Z,7.03
2018-09-23T22:15:45.955Z,6.33
2018-09-23T22:18:14.864Z,7.10
2018-09-23T22:20:43.667Z,7.00
2018-09-23T22:23:12.430Z,6.97
2018-09-23T22:25:41.134Z,6.53
2018-09-23T22:28:09.941Z,7.70
2018-09-23T22:30:38.724Z,7.77
2018-09-23T22:33:07.501Z,7.50
2018-09-23T22:35:36.226Z,8.17
2018-09-23T22:38:04.981Z,9.07
2018-09-23T22:40:33.736Z,9.40
2018-09-23T22:43:02.434Z,11.20
2018-09-23T22:45:31.265Z,11.77
2018-09-23T22:47:59.877Z,14.37
2018-09-23T22:50:28.488Z,13.57
2018-09-23T22:52:57.189Z,12.23
2018-09-23T22:55:26.769Z,12.73
2018-09-23T22:57:55.394Z,12.40
2018-09-23T23:00:24.229Z,12.30
2018-09-23T23:02:53.001Z,12.33
2018-09-23T23:05:21.719Z,8.80
2018-09-23T23:07:50.469Z,10.10
2018-09-23T23:10:19.161Z,9.80
2018-09-23T23:12:47.776Z,13.80
2018-09-23T23:15:16.484Z,14.17
2018-09-23T23:17:45.100Z,14.40
2018-09-23T23:20:13.841Z,14.33
2018-09-23T23:22:42.660Z,14.33
2018-09-23T23:25:11.716Z,14.87
2018-09-23T23:27:40.526Z,13.60
2018-09-23T23:30:09.321Z,14.03
2018-09-23T23:32:38.081Z,14.47
2018-09-23T23:35:07.136Z,14.20
2018-09-23T23:37:35.923Z,14.03
2018-09-23T23:40:05.778Z,14.23
2018-09-23T23:42:34.563Z,14.43
2018-09-23T23:45:03.401Z,14.50
2018-09-23T23:47:32.139Z,14.13
2018-09-23T23:50:00.835Z,14.97
2018-09-23T23:52:29.494Z,14.37
2018-09-23T23:54:58.023Z,14.20
2018-09-23T23:57:26.621Z,13.77
2018-09-23T23:59:55.666Z,13.20
